sensor_id;sensor_type;location;lat;lon;timestamp;P1;P2;P0
76483;PMS5003;65318;-33.924;18.406;2023-06-14T00:01:33;1;1;
76483;PMS5003;65318;-33.924;18.406;2023-06-14T00:03:59;3;2;
76483;PMS5003;65318;-33.924;18.406;2023-06-14T00:06:25;4;2;
76483;PMS5003;65318;-33.924;18.406;2023-06-14T00:08:50;2;1;
76483;PMS5003;65318;-33.924;18.406;2023-06-14T00:13:41;1;0;
76483;PMS5003;65318;-33.924;18.406;2023-06-14T00:16:06;2;2;
76483;PMS5003;65318;-33.924;18.406;2023-06-14T00:18:32;0;0;
76483;PMS5003;65318;-33.924;18.406;2023-06-14T00:20:58;1;1;
76483;PMS5003;65318;-33.924;18.406;2023-06-14T00:23:23;2;1;
76483;PMS5003;65318;-33.924;18.406;2023-06-14T00:28:14;1;0;
76483;PMS5003;65318;-33.924;18.406;2023-06-14T00:30:40;1;1;
76483;PMS5003;65318;-33.924;18.406;2023-06-14T00:33:05;3;2;
76483;PMS5003;65318;-33.924;18.406;2023-06-14T00:35:31;1;1;
76483;PMS5003;65318;-33.924;18.406;2023-06-14T00:37:56;1;0;
76483;PMS5003;65318;-33.924;18.406;2023-06-14T00:40:22;1;1;
76483;PMS5003;65318;-33.924;18.406;2023-06-14T00:42:47;0;0;
76483;PMS5003;65318;-33.924;18.406;2023-06-14T00:45:13;1;1;
76483;PMS5003;65318;-33.924;18.406;2023-06-14T00:47:38;1;1;
76483;PMS5003;65318;-33.924;18.406;2023-06-14T00:50:05;1;0;
76483;PMS5003;65318;-33.924;18.406;2023-06-14T00:52:29;0;0;
76483;PMS5003;65318;-33.924;18.406;2023-06-14T00:54:55;2;2;
76483;PMS5003;65318;-33.924;18.406;2023-06-14T00:57:20;0;0;
76483;PMS5003;65318;-33.924;18.406;2023-06-14T00:59:47;2;1;
76483;PMS5003;65318;-33.924;18.406;2023-06-14T01:02:11;1;1;
76483;PMS5003;65318;-33.924;18.406;2023-06-14T01:04:37;1;0;
76483;PMS5003;65318;-33.924;18.406;2023-06-14T01:07:05;1;1;
76483;PMS5003;65318;-33.924;18.406;2023-06-14T01:09:29;2;0;
76483;PMS5003;65318;-33.924;18.406;2023-06-14T01:11:54;0;0;
76483;PMS5003;65318;-33.924;18.406;2023-06-14T01:14:18;1;1;
76483;PMS5003;65318;-33.924;18.406;2023-06-14T01:16:43;2;2;
76483;PMS5003;65318;-33.924;18.406;2023-06-14T01:19:09;1;1;
76483;PMS5003;65318;-33.924;18.406;2023-06-14T01:21:34;3;1;
76483;PMS5003;65318;-33.924;18.406;2023-06-14T01:24:00;0;0;
76483;PMS5003;65318;-33.924;18.406;2023-06-14T01:26:25;1;1;
76483;PMS5003;65318;-33.924;18.406;2023-06-14T01:28:51;2;2;
76483;PMS5003;65318;-33.924;18.406;2023-06-14T01:31:17;3;2;
76483;PMS5003;65318;-33.924;18.406;2023-06-14T01:33:42;1;1;
76483;PMS5003;65318;-33.924;18.406;2023-06-14T01:36:07;1;1;
76483;PMS5003;65318;-33.924;18.406;2023-06-14T01:38:33;1;1;
76483;PMS5003;65318;-33.924;18.406;2023-06-14T01:40:59;1;0;
76483;PMS5003;65318;-33.924;18.406;2023-06-14T01:43:24;2;2;
76483;PMS5003;65318;-33.924;18.406;2023-06-14T01:45:50;4;3;
76483;PMS5003;65318;-33.924;18.406;2023-06-14T01:48:15;2;1;
76483;PMS5003;65318;-33.924;18.406;2023-06-14T01:50:41;1;1;
76483;PMS5003;65318;-33.924;18.406;2023-06-14T01:53:07;2;2;
76483;PMS5003;65318;-33.924;18.406;2023-06-14T01:55:32;2;1;
76483;PMS5003;65318;-33.924;18.406;2023-06-14T01:57:57;2;2;
76483;PMS5003;65318;-33.924;18.406;2023-06-14T02:00:23;0;0;
76483;PMS5003;65318;-33.924;18.406;2023-06-14T02:02:48;1;1;
76483;PMS5003;65318;-33.924;18.406;2023-06-14T02:05:14;3;2;
76483;PMS5003;65318;-33.924;18.406;2023-06-14T02:07:39;0;0;
76483;PMS5003;65318;-33.924;18.406;2023-06-14T02:10:05;3;1;
76483;PMS5003;65318;-33.924;18.406;2023-06-14T02:12:30;1;1;
76483;PMS5003;65318;-33.924;18.406;2023-06-14T02:14:56;2;1;
76483;PMS5003;65318;-33.924;18.406;2023-06-14T02:17:21;1;1;
76483;PMS5003;65318;-33.924;18.406;2023-06-14T02:19:47;1;1;
76483;PMS5003;65318;-33.924;18.406;2023-06-14T02:22:13;0;0;
76483;PMS5003;65318;-33.924;18.406;2023-06-14T02:24:37;4;4;
76483;PMS5003;65318;-33.924;18.406;2023-06-14T02:27:03;2;1;
76483;PMS5003;65318;-33.924;18.406;2023-06-14T02:29:28;3;2;
76483;PMS5003;65318;-33.924;18.406;2023-06-14T02:31:54;1;1;
76483;PMS5003;65318;-33.924;18.406;2023-06-14T02:34:19;2;2;
76483;PMS5003;65318;-33.924;18.406;2023-06-14T02:36:45;2;2;
76483;PMS5003;65318;-33.924;18.406;2023-06-14T02:39:10;1;0;
76483;PMS5003;65318;-33.924;18.406;2023-06-14T02:41:36;0;0;
76483;PMS5003;65318;-33.924;18.406;2023-06-14T02:44:01;0;0;
76483;PMS5003;65318;-33.924;18.406;2023-06-14T02:46:27;0;0;
76483;PMS5003;65318;-33.924;18.406;2023-06-14T02:48:52;1;1;
76483;PMS5003;65318;-33.924;18.406;2023-06-14T02:51:17;1;1;
76483;PMS5003;65318;-33.924;18.406;2023-06-14T02:53:43;1;1;
76483;PMS5003;65318;-33.924;18.406;2023-06-14T02:56:08;0;0;
76483;PMS5003;65318;-33.924;18.406;2023-06-14T02:58:35;0;0;
76483;PMS5003;65318;-33.924;18.406;2023-06-14T03:00:59;0;0;
76483;PMS5003;65318;-33.924;18.406;2023-06-14T03:03:25;1;1;
76483;PMS5003;65318;-33.924;18.406;2023-06-14T03:05:50;1;1;
76483;PMS5003;65318;-33.924;18.406;2023-06-14T03:08:16;1;0;
76483;PMS5003;65318;-33.924;18.406;2023-06-14T03:10:42;1;1;
76483;PMS5003;65318;-33.924;18.406;2023-06-14T03:13:07;1;1;
76483;PMS5003;65318;-33.924;18.406;2023-06-14T03:15:32;1;1;
76483;PMS5003;65318;-33.924;18.406;2023-06-14T03:17:59;2;1;
76483;PMS5003;65318;-33.924;18.406;2023-06-14T03:20:23;1;0;
76483;PMS5003;65318;-33.924;18.406;2023-06-14T03:22:49;2;2;
76483;PMS5003;65318;-33.924;18.406;2023-06-14T03:25:14;0;0;
76483;PMS5003;65318;-33.924;18.406;2023-06-14T03:27:40;1;0;
76483;PMS5003;65318;-33.924;18.406;2023-06-14T03:30:06;1;0;
76483;PMS5003;65318;-33.924;18.406;2023-06-14T03:32:30;2;1;
76483;PMS5003;65318;-33.924;18.406;2023-06-14T03:34:56;0;0;
76483;PMS5003;65318;-33.924;18.406;2023-06-14T03:37:21;2;1;
76483;PMS5003;65318;-33.924;18.406;2023-06-14T03:39:47;1;1;
76483;PMS5003;65318;-33.924;18.406;2023-06-14T03:42:12;2;2;
76483;PMS5003;65318;-33.924;18.406;2023-06-14T03:44:38;1;1;
76483;PMS5003;65318;-33.924;18.406;2023-06-14T03:47:04;2;2;
76483;PMS5003;65318;-33.924;18.406;2023-06-14T03:49:29;2;1;
76483;PMS5003;65318;-33.924;18.406;2023-06-14T03:51:54;2;2;
76483;PMS5003;65318;-33.924;18.406;2023-06-14T03:54:20;6;4;
76483;PMS5003;65318;-33.924;18.406;2023-06-14T03:56:45;10;10;
76483;PMS5003;65318;-33.924;18.406;2023-06-14T03:59:11;14;12;
76483;PMS5003;65318;-33.924;18.406;2023-06-14T04:01:36;16;16;
76483;PMS5003;65318;-33.924;18.406;2023-06-14T04:04:02;15;14;
76483;PMS5003;65318;-33.924;18.406;2023-06-14T04:06:27;16;14;
76483;PMS5003;65318;-33.924;18.406;2023-06-14T04:08:53;18;17;
76483;PMS5003;65318;-33.924;18.406;2023-06-14T04:11:18;19;18;
76483;PMS5003;65318;-33.924;18.406;2023-06-14T04:13:44;18;17;
76483;PMS5003;65318;-33.924;18.406;2023-06-14T04:16:09;14;14;
76483;PMS5003;65318;-33.924;18.406;2023-06-14T04:18:35;18;17;
76483;PMS5003;65318;-33.924;18.406;2023-06-14T04:21:01;18;18;
76483;PMS5003;65318;-33.924;18.406;2023-06-14T04:23:27;14;14;
76483;PMS5003;65318;-33.924;18.406;2023-06-14T04:25:52;17;16;
76483;PMS5003;65318;-33.924;18.406;2023-06-14T04:28:18;18;17;
76483;PMS5003;65318;-33.924;18.406;2023-06-14T04:30:43;13;13;
76483;PMS5003;65318;-33.924;18.406;2023-06-14T04:33:09;14;12;
76483;PMS5003;65318;-33.924;18.406;2023-06-14T04:35:34;14;13;
76483;PMS5003;65318;-33.924;18.406;2023-06-14T04:37:59;12;10;
76483;PMS5003;65318;-33.924;18.406;2023-06-14T04:40:25;13;12;
76483;PMS5003;65318;-33.924;18.406;2023-06-14T04:42:50;14;13;
76483;PMS5003;65318;-33.924;18.406;2023-06-14T04:45:16;12;10;
76483;PMS5003;65318;-33.924;18.406;2023-06-14T04:47:41;12;11;
76483;PMS5003;65318;-33.924;18.406;2023-06-14T04:50:07;13;13;
76483;PMS5003;65318;-33.924;18.406;2023-06-14T04:52:32;12;11;
76483;PMS5003;65318;-33.924;18.406;2023-06-14T04:54:57;13;13;
76483;PMS5003;65318;-33.924;18.406;2023-06-14T04:57:23;14;12;
76483;PMS5003;65318;-33.924;18.406;2023-06-14T04:59:49;14;11;
76483;PMS5003;65318;-33.924;18.406;2023-06-14T05:02:14;12;10;
76483;PMS5003;65318;-33.924;18.406;2023-06-14T05:04:39;11;9;
76483;PMS5003;65318;-33.924;18.406;2023-06-14T05:07:04;12;11;
76483;PMS5003;65318;-33.924;18.406;2023-06-14T05:09:30;9;9;
76483;PMS5003;65318;-33.924;18.406;2023-06-14T05:11:56;9;9;
76483;PMS5003;65318;-33.924;18.406;2023-06-14T05:14:21;9;9;
76483;PMS5003;65318;-33.924;18.406;2023-06-14T05:16:46;11;10;
76483;PMS5003;65318;-33.924;18.406;2023-06-14T05:19:12;10;10;
76483;PMS5003;65318;-33.924;18.406;2023-06-14T05:21:37;8;8;
76483;PMS5003;65318;-33.924;18.406;2023-06-14T05:24:03;9;8;
76483;PMS5003;65318;-33.924;18.406;2023-06-14T05:26:28;8;8;
76483;PMS5003;65318;-33.924;18.406;2023-06-14T05:28:53;10;8;
76483;PMS5003;65318;-33.924;18.406;2023-06-14T05:31:19;10;9;
76483;PMS5003;65318;-33.924;18.406;2023-06-14T05:33:44;9;7;
76483;PMS5003;65318;-33.924;18.406;2023-06-14T05:36:09;9;8;
76483;PMS5003;65318;-33.924;18.406;2023-06-14T05:38:35;10;9;
76483;PMS5003;65318;-33.924;18.406;2023-06-14T05:41:00;11;9;
76483;PMS5003;65318;-33.924;18.406;2023-06-14T05:43:26;12;10;
76483;PMS5003;65318;-33.924;18.406;2023-06-14T05:45:51;10;9;
76483;PMS5003;65318;-33.924;18.406;2023-06-14T05:48:17;9;8;
76483;PMS5003;65318;-33.924;18.406;2023-06-14T05:50:42;11;10;
76483;PMS5003;65318;-33.924;18.406;2023-06-14T05:53:07;11;9;
76483;PMS5003;65318;-33.924;18.406;2023-06-14T05:55:32;10;9;
76483;PMS5003;65318;-33.924;18.406;2023-06-14T05:57:58;8;8;
76483;PMS5003;65318;-33.924;18.406;2023-06-14T06:00:23;11;10;
76483;PMS5003;65318;-33.924;18.406;2023-06-14T06:02:48;8;8;
76483;PMS5003;65318;-33.924;18.406;2023-06-14T06:05:14;8;8;
76483;PMS5003;65318;-33.924;18.406;2023-06-14T06:07:39;11;9;
76483;PMS5003;65318;-33.924;18.406;2023-06-14T06:10:05;10;8;
76483;PMS5003;65318;-33.924;18.406;2023-06-14T06:12:30;10;8;
76483;PMS5003;65318;-33.924;18.406;2023-06-14T06:14:56;10;9;
76483;PMS5003;65318;-33.924;18.406;2023-06-14T06:17:20;6;6;
76483;PMS5003;65318;-33.924;18.406;2023-06-14T06:19:46;13;10;
76483;PMS5003;65318;-33.924;18.406;2023-06-14T06:22:11;13;12;
76483;PMS5003;65318;-33.924;18.406;2023-06-14T06:24:37;15;13;
76483;PMS5003;65318;-33.924;18.406;2023-06-14T06:27:03;7;6;
76483;PMS5003;65318;-33.924;18.406;2023-06-14T06:29:28;8;8;
76483;PMS5003;65318;-33.924;18.406;2023-06-14T06:31:54;9;8;
76483;PMS5003;65318;-33.924;18.406;2023-06-14T06:34:19;11;9;
76483;PMS5003;65318;-33.924;18.406;2023-06-14T06:36:44;9;7;
76483;PMS5003;65318;-33.924;18.406;2023-06-14T06:39:10;8;7;
76483;PMS5003;65318;-33.924;18.406;2023-06-14T06:41:37;8;6;
76483;PMS5003;65318;-33.924;18.406;2023-06-14T06:44:01;10;8;
76483;PMS5003;65318;-33.924;18.406;2023-06-14T06:46:26;9;8;
76483;PMS5003;65318;-33.924;18.406;2023-06-14T06:48:52;12;12;
76483;PMS5003;65318;-33.924;18.406;2023-06-14T06:51:17;8;8;
76483;PMS5003;65318;-33.924;18.406;2023-06-14T06:53:42;9;8;
76483;PMS5003;65318;-33.924;18.406;2023-06-14T06:56:08;11;9;
76483;PMS5003;65318;-33.924;18.406;2023-06-14T06:58:33;9;7;
76483;PMS5003;65318;-33.924;18.406;2023-06-14T07:00:59;10;9;
76483;PMS5003;65318;-33.924;18.406;2023-06-14T07:03:24;7;6;
76483;PMS5003;65318;-33.924;18.406;2023-06-14T07:05:49;9;9;
76483;PMS5003;65318;-33.924;18.406;2023-06-14T07:08:15;10;7;
76483;PMS5003;65318;-33.924;18.406;2023-06-14T07:10:40;8;7;
76483;PMS5003;65318;-33.924;18.406;2023-06-14T07:13:06;9;8;
76483;PMS5003;65318;-33.924;18.406;2023-06-14T07:15:31;6;6;
76483;PMS5003;65318;-33.924;18.406;2023-06-14T07:17:57;11;9;
76483;PMS5003;65318;-33.924;18.406;2023-06-14T07:20:22;9;6;
76483;PMS5003;65318;-33.924;18.406;2023-06-14T07:22:48;7;7;
76483;PMS5003;65318;-33.924;18.406;2023-06-14T07:25:13;8;7;
76483;PMS5003;65318;-33.924;18.406;2023-06-14T07:27:39;8;6;
76483;PMS5003;65318;-33.924;18.406;2023-06-14T07:30:05;6;6;
76483;PMS5003;65318;-33.924;18.406;2023-06-14T07:32:30;9;8;
76483;PMS5003;65318;-33.924;18.406;2023-06-14T07:34:55;13;9;
76483;PMS5003;65318;-33.924;18.406;2023-06-14T07:37:21;8;7;
76483;PMS5003;65318;-33.924;18.406;2023-06-14T07:39:47;6;6;
76483;PMS5003;65318;-33.924;18.406;2023-06-14T07:42:12;10;7;
76483;PMS5003;65318;-33.924;18.406;2023-06-14T07:44:37;8;6;
76483;PMS5003;65318;-33.924;18.406;2023-06-14T07:47:03;6;6;
76483;PMS5003;65318;-33.924;18.406;2023-06-14T07:49:28;10;9;
76483;PMS5003;65318;-33.924;18.406;2023-06-14T07:51:54;7;6;
76483;PMS5003;65318;-33.924;18.406;2023-06-14T07:54:19;11;9;
76483;PMS5003;65318;-33.924;18.406;2023-06-14T07:56:44;11;8;
76483;PMS5003;65318;-33.924;18.406;2023-06-14T07:59:10;10;8;
76483;PMS5003;65318;-33.924;18.406;2023-06-14T08:01:36;9;7;
76483;PMS5003;65318;-33.924;18.406;2023-06-14T08:04:01;6;5;
76483;PMS5003;65318;-33.924;18.406;2023-06-14T08:06:26;11;7;
76483;PMS5003;65318;-33.924;18.406;2023-06-14T08:08:52;7;5;
76483;PMS5003;65318;-33.924;18.406;2023-06-14T08:11:22;9;7;
76483;PMS5003;65318;-33.924;18.406;2023-06-14T08:13:43;8;8;
76483;PMS5003;65318;-33.924;18.406;2023-06-14T08:16:08;6;6;
76483;PMS5003;65318;-33.924;18.406;2023-06-14T08:18:33;10;7;
76483;PMS5003;65318;-33.924;18.406;2023-06-14T08:20:59;8;7;
76483;PMS5003;65318;-33.924;18.406;2023-06-14T08:23:25;10;7;
76483;PMS5003;65318;-33.924;18.406;2023-06-14T08:25:50;10;7;
76483;PMS5003;65318;-33.924;18.406;2023-06-14T08:28:16;5;3;
76483;PMS5003;65318;-33.924;18.406;2023-06-14T08:30:41;8;8;
76483;PMS5003;65318;-33.924;18.406;2023-06-14T08:33:06;7;6;
76483;PMS5003;65318;-33.924;18.406;2023-06-14T08:35:31;7;6;
76483;PMS5003;65318;-33.924;18.406;2023-06-14T08:37:57;6;6;
76483;PMS5003;65318;-33.924;18.406;2023-06-14T08:40:23;7;6;
76483;PMS5003;65318;-33.924;18.406;2023-06-14T08:42:50;5;4;
76483;PMS5003;65318;-33.924;18.406;2023-06-14T08:45:13;16;12;
76483;PMS5003;65318;-33.924;18.406;2023-06-14T08:47:39;8;6;
76483;PMS5003;65318;-33.924;18.406;2023-06-14T08:50:05;12;9;
76483;PMS5003;65318;-33.924;18.406;2023-06-14T08:52:30;5;4;
76483;PMS5003;65318;-33.924;18.406;2023-06-14T08:54:56;11;9;
76483;PMS5003;65318;-33.924;18.406;2023-06-14T08:57:21;7;6;
76483;PMS5003;65318;-33.924;18.406;2023-06-14T08:59:47;5;5;
76483;PMS5003;65318;-33.924;18.406;2023-06-14T09:02:12;7;6;
76483;PMS5003;65318;-33.924;18.406;2023-06-14T09:04:38;6;3;
76483;PMS5003;65318;-33.924;18.406;2023-06-14T09:07:03;6;5;
76483;PMS5003;65318;-33.924;18.406;2023-06-14T09:09:28;9;6;
76483;PMS5003;65318;-33.924;18.406;2023-06-14T09:11:54;6;6;
76483;PMS5003;65318;-33.924;18.406;2023-06-14T09:14:19;10;7;
76483;PMS5003;65318;-33.924;18.406;2023-06-14T09:16:44;7;7;
76483;PMS5003;65318;-33.924;18.406;2023-06-14T09:19:10;7;6;
76483;PMS5003;65318;-33.924;18.406;2023-06-14T09:21:35;7;6;
76483;PMS5003;65318;-33.924;18.406;2023-06-14T09:24:01;7;6;
76483;PMS5003;65318;-33.924;18.406;2023-06-14T09:26:26;6;5;
76483;PMS5003;65318;-33.924;18.406;2023-06-14T09:28:51;6;4;
76483;PMS5003;65318;-33.924;18.406;2023-06-14T09:31:17;10;8;
76483;PMS5003;65318;-33.924;18.406;2023-06-14T09:33:42;7;6;
76483;PMS5003;65318;-33.924;18.406;2023-06-14T09:36:09;6;5;
76483;PMS5003;65318;-33.924;18.406;2023-06-14T09:38:34;8;6;
76483;PMS5003;65318;-33.924;18.406;2023-06-14T09:40:58;5;4;
76483;PMS5003;65318;-33.924;18.406;2023-06-14T09:43:23;8;6;
76483;PMS5003;65318;-33.924;18.406;2023-06-14T09:45:49;5;5;
76483;PMS5003;65318;-33.924;18.406;2023-06-14T09:48:16;9;7;
76483;PMS5003;65318;-33.924;18.406;2023-06-14T09:50:40;4;4;
76483;PMS5003;65318;-33.924;18.406;2023-06-14T09:53:06;7;6;
76483;PMS5003;65318;-33.924;18.406;2023-06-14T09:55:31;5;5;
76483;PMS5003;65318;-33.924;18.406;2023-06-14T09:57:56;5;5;
76483;PMS5003;65318;-33.924;18.406;2023-06-14T10:00:22;5;5;
76483;PMS5003;65318;-33.924;18.406;2023-06-14T10:02:49;5;4;
76483;PMS5003;65318;-33.924;18.406;2023-06-14T10:05:14;8;6;
76483;PMS5003;65318;-33.924;18.406;2023-06-14T10:07:40;8;6;
76483;PMS5003;65318;-33.924;18.406;2023-06-14T10:10:04;7;5;
76483;PMS5003;65318;-33.924;18.406;2023-06-14T10:12:29;6;5;
76483;PMS5003;65318;-33.924;18.406;2023-06-14T10:14:55;8;7;
76483;PMS5003;65318;-33.924;18.406;2023-06-14T10:17:23;6;6;
76483;PMS5003;65318;-33.924;18.406;2023-06-14T10:19:48;7;6;
76483;PMS5003;65318;-33.924;18.406;2023-06-14T10:22:12;7;7;
76483;PMS5003;65318;-33.924;18.406;2023-06-14T10:24:40;6;5;
76483;PMS5003;65318;-33.924;18.406;2023-06-14T10:27:02;7;4;
76483;PMS5003;65318;-33.924;18.406;2023-06-14T10:29:28;10;6;
76483;PMS5003;65318;-33.924;18.406;2023-06-14T10:31:55;8;5;
76483;PMS5003;65318;-33.924;18.406;2023-06-14T10:34:23;8;5;
76483;PMS5003;65318;-33.924;18.406;2023-06-14T10:36:45;9;7;
76483;PMS5003;65318;-33.924;18.406;2023-06-14T10:39:14;6;4;
76483;PMS5003;65318;-33.924;18.406;2023-06-14T10:41:36;5;5;
76483;PMS5003;65318;-33.924;18.406;2023-06-14T10:46:29;5;4;
76483;PMS5003;65318;-33.924;18.406;2023-06-14T10:48:53;6;4;
76483;PMS5003;65318;-33.924;18.406;2023-06-14T10:51:18;7;7;
76483;PMS5003;65318;-33.924;18.406;2023-06-14T10:53:43;4;4;
76483;PMS5003;65318;-33.924;18.406;2023-06-14T10:56:09;4;4;
76483;PMS5003;65318;-33.924;18.406;2023-06-14T10:58:34;5;4;
76483;PMS5003;65318;-33.924;18.406;2023-06-14T11:01:00;5;4;
76483;PMS5003;65318;-33.924;18.406;2023-06-14T11:03:36;5;5;
76483;PMS5003;65318;-33.924;18.406;2023-06-14T11:05:52;6;4;
76483;PMS5003;65318;-33.924;18.406;2023-06-14T11:08:22;12;8;
76483;PMS5003;65318;-33.924;18.406;2023-06-14T11:10:43;6;4;
76483;PMS5003;65318;-33.924;18.406;2023-06-14T11:13:07;4;4;
76483;PMS5003;65318;-33.924;18.406;2023-06-14T11:15:33;6;5;
76483;PMS5003;65318;-33.924;18.406;2023-06-14T11:18:00;4;3;
76483;PMS5003;65318;-33.924;18.406;2023-06-14T11:20:25;9;7;
76483;PMS5003;65318;-33.924;18.406;2023-06-14T11:22:49;6;6;
76483;PMS5003;65318;-33.924;18.406;2023-06-14T11:25:15;7;6;
76483;PMS5003;65318;-33.924;18.406;2023-06-14T11:27:41;5;3;
76483;PMS5003;65318;-33.924;18.406;2023-06-14T11:30:07;5;5;
76483;PMS5003;65318;-33.924;18.406;2023-06-14T11:32:31;4;3;
76483;PMS5003;65318;-33.924;18.406;2023-06-14T11:34:56;6;5;
76483;PMS5003;65318;-33.924;18.406;2023-06-14T11:37:22;4;4;
76483;PMS5003;65318;-33.924;18.406;2023-06-14T11:39:47;6;6;
76483;PMS5003;65318;-33.924;18.406;2023-06-14T11:42:14;7;6;
76483;PMS5003;65318;-33.924;18.406;2023-06-14T11:44:38;4;4;
76483;PMS5003;65318;-33.924;18.406;2023-06-14T11:47:04;6;6;
76483;PMS5003;65318;-33.924;18.406;2023-06-14T11:49:29;12;10;
76483;PMS5003;65318;-33.924;18.406;2023-06-14T11:51:55;7;5;
76483;PMS5003;65318;-33.924;18.406;2023-06-14T11:54:21;7;5;
76483;PMS5003;65318;-33.924;18.406;2023-06-14T11:56:46;5;5;
76483;PMS5003;65318;-33.924;18.406;2023-06-14T11:59:12;4;4;
76483;PMS5003;65318;-33.924;18.406;2023-06-14T12:01:37;4;3;
76483;PMS5003;65318;-33.924;18.406;2023-06-14T12:04:03;5;5;
76483;PMS5003;65318;-33.924;18.406;2023-06-14T12:06:29;6;4;
76483;PMS5003;65318;-33.924;18.406;2023-06-14T12:08:55;6;5;
76483;PMS5003;65318;-33.924;18.406;2023-06-14T12:11:19;7;5;
76483;PMS5003;65318;-33.924;18.406;2023-06-14T12:13:45;6;5;
76483;PMS5003;65318;-33.924;18.406;2023-06-14T12:16:11;5;5;
76483;PMS5003;65318;-33.924;18.406;2023-06-14T12:18:36;6;4;
76483;PMS5003;65318;-33.924;18.406;2023-06-14T12:21:02;5;5;
76483;PMS5003;65318;-33.924;18.406;2023-06-14T12:23:27;9;7;
76483;PMS5003;65318;-33.924;18.406;2023-06-14T12:25:53;4;3;
76483;PMS5003;65318;-33.924;18.406;2023-06-14T12:28:18;4;3;
76483;PMS5003;65318;-33.924;18.406;2023-06-14T12:30:44;9;7;
76483;PMS5003;65318;-33.924;18.406;2023-06-14T12:33:09;4;3;
76483;PMS5003;65318;-33.924;18.406;2023-06-14T12:35:34;6;5;
76483;PMS5003;65318;-33.924;18.406;2023-06-14T12:38:00;10;7;
76483;PMS5003;65318;-33.924;18.406;2023-06-14T12:40:25;8;7;
76483;PMS5003;65318;-33.924;18.406;2023-06-14T12:42:51;3;3;
76483;PMS5003;65318;-33.924;18.406;2023-06-14T12:45:16;6;6;
76483;PMS5003;65318;-33.924;18.406;2023-06-14T12:47:42;4;4;
76483;PMS5003;65318;-33.924;18.406;2023-06-14T12:50:07;4;4;
76483;PMS5003;65318;-33.924;18.406;2023-06-14T12:52:32;6;6;
76483;PMS5003;65318;-33.924;18.406;2023-06-14T12:54:57;9;7;
76483;PMS5003;65318;-33.924;18.406;2023-06-14T12:57:23;5;3;
76483;PMS5003;65318;-33.924;18.406;2023-06-14T12:59:49;3;3;
76483;PMS5003;65318;-33.924;18.406;2023-06-14T13:02:15;5;4;
76483;PMS5003;65318;-33.924;18.406;2023-06-14T13:04:40;6;3;
76483;PMS5003;65318;-33.924;18.406;2023-06-14T13:07:05;5;5;
76483;PMS5003;65318;-33.924;18.406;2023-06-14T13:09:30;9;5;
76483;PMS5003;65318;-33.924;18.406;2023-06-14T13:11:56;2;2;
76483;PMS5003;65318;-33.924;18.406;2023-06-14T13:14:22;6;5;
76483;PMS5003;65318;-33.924;18.406;2023-06-14T13:16:47;4;4;
76483;PMS5003;65318;-33.924;18.406;2023-06-14T13:19:12;7;5;
76483;PMS5003;65318;-33.924;18.406;2023-06-14T13:21:38;7;4;
76483;PMS5003;65318;-33.924;18.406;2023-06-14T13:24:04;7;6;
76483;PMS5003;65318;-33.924;18.406;2023-06-14T13:26:29;5;5;
76483;PMS5003;65318;-33.924;18.406;2023-06-14T13:28:54;6;5;
76483;PMS5003;65318;-33.924;18.406;2023-06-14T13:33:45;5;4;
76483;PMS5003;65318;-33.924;18.406;2023-06-14T13:36:10;6;6;
76483;PMS5003;65318;-33.924;18.406;2023-06-14T13:38:35;6;5;
76483;PMS5003;65318;-33.924;18.406;2023-06-14T13:41:01;6;4;
76483;PMS5003;65318;-33.924;18.406;2023-06-14T13:43:26;6;4;
76483;PMS5003;65318;-33.924;18.406;2023-06-14T13:45:51;6;5;
76483;PMS5003;65318;-33.924;18.406;2023-06-14T13:48:17;4;4;
76483;PMS5003;65318;-33.924;18.406;2023-06-14T13:50:43;4;4;
76483;PMS5003;65318;-33.924;18.406;2023-06-14T13:53:08;6;4;
76483;PMS5003;65318;-33.924;18.406;2023-06-14T13:55:33;5;4;
76483;PMS5003;65318;-33.924;18.406;2023-06-14T13:57:59;6;5;
76483;PMS5003;65318;-33.924;18.406;2023-06-14T14:00:24;6;5;
76483;PMS5003;65318;-33.924;18.406;2023-06-14T14:02:50;6;5;
76483;PMS5003;65318;-33.924;18.406;2023-06-14T14:05:16;6;5;
76483;PMS5003;65318;-33.924;18.406;2023-06-14T14:07:41;6;4;
76483;PMS5003;65318;-33.924;18.406;2023-06-14T14:10:07;6;6;
76483;PMS5003;65318;-33.924;18.406;2023-06-14T14:12:32;10;7;
76483;PMS5003;65318;-33.924;18.406;2023-06-14T14:14:58;10;8;
76483;PMS5003;65318;-33.924;18.406;2023-06-14T14:17:23;7;5;
76483;PMS5003;65318;-33.924;18.406;2023-06-14T14:19:49;5;4;
76483;PMS5003;65318;-33.924;18.406;2023-06-14T14:22:14;6;5;
76483;PMS5003;65318;-33.924;18.406;2023-06-14T14:24:40;5;4;
76483;PMS5003;65318;-33.924;18.406;2023-06-14T14:27:06;8;4;
76483;PMS5003;65318;-33.924;18.406;2023-06-14T14:29:31;4;3;
76483;PMS5003;65318;-33.924;18.406;2023-06-14T14:31:56;6;5;
76483;PMS5003;65318;-33.924;18.406;2023-06-14T14:34:22;8;6;
76483;PMS5003;65318;-33.924;18.406;2023-06-14T14:36:47;6;5;
76483;PMS5003;65318;-33.924;18.406;2023-06-14T14:39:13;4;3;
76483;PMS5003;65318;-33.924;18.406;2023-06-14T14:41:39;8;6;
76483;PMS5003;65318;-33.924;18.406;2023-06-14T14:44:04;5;4;
76483;PMS5003;65318;-33.924;18.406;2023-06-14T14:46:29;7;5;
76483;PMS5003;65318;-33.924;18.406;2023-06-14T14:48:56;6;4;
76483;PMS5003;65318;-33.924;18.406;2023-06-14T14:51:20;10;7;
76483;PMS5003;65318;-33.924;18.406;2023-06-14T14:53:46;5;5;
76483;PMS5003;65318;-33.924;18.406;2023-06-14T14:56:10;9;6;
76483;PMS5003;65318;-33.924;18.406;2023-06-14T14:58:36;6;4;
76483;PMS5003;65318;-33.924;18.406;2023-06-14T15:01:01;6;6;
76483;PMS5003;65318;-33.924;18.406;2023-06-14T15:03:27;9;6;
76483;PMS5003;65318;-33.924;18.406;2023-06-14T15:05:52;9;9;
76483;PMS5003;65318;-33.924;18.406;2023-06-14T15:08:18;7;4;
76483;PMS5003;65318;-33.924;18.406;2023-06-14T15:10:43;5;5;
76483;PMS5003;65318;-33.924;18.406;2023-06-14T15:13:08;8;7;
76483;PMS5003;65318;-33.924;18.406;2023-06-14T15:15:34;6;5;
76483;PMS5003;65318;-33.924;18.406;2023-06-14T15:17:59;5;5;
76483;PMS5003;65318;-33.924;18.406;2023-06-14T15:20:25;9;8;
76483;PMS5003;65318;-33.924;18.406;2023-06-14T15:22:51;8;5;
76483;PMS5003;65318;-33.924;18.406;2023-06-14T15:25:16;7;6;
76483;PMS5003;65318;-33.924;18.406;2023-06-14T15:27:42;7;5;
76483;PMS5003;65318;-33.924;18.406;2023-06-14T15:30:08;7;5;
76483;PMS5003;65318;-33.924;18.406;2023-06-14T15:32:33;8;4;
76483;PMS5003;65318;-33.924;18.406;2023-06-14T15:34:58;8;6;
76483;PMS5003;65318;-33.924;18.406;2023-06-14T15:37:24;5;5;
76483;PMS5003;65318;-33.924;18.406;2023-06-14T15:39:49;11;8;
76483;PMS5003;65318;-33.924;18.406;2023-06-14T15:42:15;8;6;
76483;PMS5003;65318;-33.924;18.406;2023-06-14T15:44:40;6;5;
76483;PMS5003;65318;-33.924;18.406;2023-06-14T15:47:05;7;6;
76483;PMS5003;65318;-33.924;18.406;2023-06-14T15:49:30;8;7;
76483;PMS5003;65318;-33.924;18.406;2023-06-14T15:51:56;6;6;
76483;PMS5003;65318;-33.924;18.406;2023-06-14T15:54:21;10;7;
76483;PMS5003;65318;-33.924;18.406;2023-06-14T15:56:47;7;6;
76483;PMS5003;65318;-33.924;18.406;2023-06-14T15:59:12;13;10;
76483;PMS5003;65318;-33.924;18.406;2023-06-14T16:01:38;9;7;
76483;PMS5003;65318;-33.924;18.406;2023-06-14T16:04:04;9;7;
76483;PMS5003;65318;-33.924;18.406;2023-06-14T16:06:29;6;6;
76483;PMS5003;65318;-33.924;18.406;2023-06-14T16:08:54;7;7;
76483;PMS5003;65318;-33.924;18.406;2023-06-14T16:11:20;7;6;